Time;durP1;ratioP1;P1;durP2;ratioP2;P2;SDS_P1;SDS_P2;PMS_P1;PMS_P2;Temp;Humidity;BMP_temperature;BMP_pressure;BME280_temperature;BME280_humidity;BME280_pressure;Samples;Min_cycle;Max_cycle;Signal;HPM_P1;HPM_P2
2022/06/06 00:00:40;;;;;;;3.47;1.30;;;;;;;;;;4996275;28;20034;-87
2022/06/06 00:03:06;;;;;;;3.45;1.23;;;;;;;;;;4996044;28;20482;-85
2022/06/06 00:05:32;;;;;;;2.63;1.20;;;;;;;;;;5013010;28;20045;-85
2022/06/06 00:07:58;;;;;;;1.80;0.90;;;;;;;;;;5013854;28;20053;-85
2022/06/06 00:10:24;;;;;;;5.07;1.23;;;;;;;;;;5073694;22;20131;-87
2022/06/06 00:12:50;;;;;;;2.50;1.15;;;;;;;;;;5081632;28;20439;-86
2022/06/06 00:15:16;;;;;;;2.28;1.20;;;;;;;;;;5081369;28;20075;-87
2022/06/06 00:17:41;;;;;;;2.85;1.15;;;;;;;;;;5083339;28;20032;-87
2022/06/06 00:20:08;;;;;;;1.73;1.10;;;;;;;;;;5081902;28;20674;-86
2022/06/06 00:22:33;;;;;;;2.00;1.20;;;;;;;;;;5081800;28;20086;-86
2022/06/06 00:24:59;;;;;;;4.82;1.33;;;;;;;;;;5081763;28;20033;-85
2022/06/06 00:27:24;;;;;;;2.90;1.20;;;;;;;;;;5080992;28;20032;-86
2022/06/06 00:29:53;;;;;;;2.08;1.17;;;;;;;;;;5081775;28;20033;-87
2022/06/06 00:35:06;;;;;;;2.45;1.27;;;;;;;;;;5082767;28;20036;-86
2022/06/06 00:37:34;;;;;;;2.35;1.25;;;;;;;;;;5085822;28;20032;-86
2022/06/06 00:40:03;;;;;;;2.72;1.20;;;;;;;;;;5085971;28;20032;-86
2022/06/06 00:42:34;;;;;;;1.80;1.10;;;;;;;;;;5084547;28;20519;-87
2022/06/06 00:45:14;;;;;;;4.05;1.17;;;;;;;;;;5085034;28;20032;-86
2022/06/06 00:47:42;;;;;;;2.80;1.40;;;;;;;;;;5085501;28;20035;-86
2022/06/06 00:50:17;;;;;;;3.88;1.23;;;;;;;;;;5084259;28;20044;-85
2022/06/06 00:52:45;;;;;;;3.33;1.30;;;;;;;;;;5084272;28;20040;-86
2022/06/06 00:55:27;;;;;;;4.63;1.52;;;;;;;;;;5085227;28;20035;-86
2022/06/06 00:57:58;;;;;;;3.88;1.30;;;;;;;;;;5084893;28;20036;-85
2022/06/06 01:00:23;;;;;;;2.90;1.45;;;;;;;;;;5085877;28;20033;-86
2022/06/06 01:02:53;;;;;;;2.70;1.30;;;;;;;;;;5084970;28;20620;-86
2022/06/06 01:05:21;;;;;;;3.45;1.40;;;;;;;;;;5085299;28;20063;-85
2022/06/06 01:07:47;;;;;;;2.28;1.33;;;;;;;;;;5086237;28;20113;-87
2022/06/06 01:10:15;;;;;;;3.35;1.30;;;;;;;;;;5084218;28;20500;-86
2022/06/06 01:12:43;;;;;;;4.95;1.20;;;;;;;;;;5084842;28;20056;-85
2022/06/06 01:15:13;;;;;;;2.97;1.40;;;;;;;;;;5085121;28;20169;-86
2022/06/06 01:17:38;;;;;;;2.53;1.45;;;;;;;;;;5084326;28;20074;-86
2022/06/06 01:20:47;;;;;;;5.35;1.27;;;;;;;;;;5083122;28;20040;-84
2022/06/06 01:23:18;;;;;;;2.25;1.30;;;;;;;;;;5083503;28;20519;-86
2022/06/06 01:26:02;;;;;;;1.58;1.15;;;;;;;;;;5084270;28;20036;-85
2022/06/06 01:28:37;;;;;;;2.53;1.35;;;;;;;;;;5083279;28;20032;-85
2022/06/06 01:31:07;;;;;;;2.03;1.23;;;;;;;;;;5084308;28;20082;-85
2022/06/06 01:33:58;;;;;;;2.35;1.20;;;;;;;;;;5084724;28;20040;-85
2022/06/06 01:36:27;;;;;;;2.50;1.50;;;;;;;;;;5084226;28;20392;-88
2022/06/06 01:38:54;;;;;;;2.78;1.20;;;;;;;;;;5082903;28;20029;-86
2022/06/06 01:41:38;;;;;;;2.17;1.17;;;;;;;;;;5084402;28;20021;-86
2022/06/06 01:44:20;;;;;;;;;;;;;;;;;;5085090;28;20090;-88
2022/06/06 01:46:47;;;;;;;2.58;1.20;;;;;;;;;;5065952;28;19962;-86
2022/06/06 01:49:14;;;;;;;6.57;1.33;;;;;;;;;;5082351;28;20055;-86
2022/06/06 01:51:40;;;;;;;2.10;1.38;;;;;;;;;;5084787;28;20048;-88
2022/06/06 01:54:06;;;;;;;4.50;1.60;;;;;;;;;;5084500;28;20115;-86
2022/06/06 01:56:35;;;;;;;2.50;1.30;;;;;;;;;;5073449;28;20028;-87
2022/06/06 01:59:01;;;;;;;2.85;1.20;;;;;;;;;;5073113;28;20408;-85
2022/06/06 02:01:27;;;;;;;4.18;1.50;;;;;;;;;;5073399;28;20036;-85
2022/06/06 02:03:53;;;;;;;2.47;1.30;;;;;;;;;;5074639;28;20041;-86
2022/06/06 02:06:18;;;;;;;4.75;1.30;;;;;;;;;;5074070;28;20036;-86
2022/06/06 02:08:44;;;;;;;2.33;1.40;;;;;;;;;;5074393;28;20535;-85
2022/06/06 02:11:11;;;;;;;2.78;1.50;;;;;;;;;;5074188;28;20043;-85
2022/06/06 02:13:37;;;;;;;3.40;1.40;;;;;;;;;;5074307;28;20112;-85
2022/06/06 02:16:03;;;;;;;4.20;1.60;;;;;;;;;;5073733;28;20086;-85
2022/06/06 02:18:28;;;;;;;3.58;1.30;;;;;;;;;;5073237;28;20037;-85
2022/06/06 02:20:55;;;;;;;3.63;1.40;;;;;;;;;;5072620;28;20140;-85
2022/06/06 02:23:21;;;;;;;2.22;1.40;;;;;;;;;;5073394;28;20052;-84
2022/06/06 02:25:46;;;;;;;3.33;1.30;;;;;;;;;;5072564;28;20035;-85
2022/06/06 02:28:12;;;;;;;1.83;1.17;;;;;;;;;;5072329;28;20044;-84
2022/06/06 02:30:38;;;;;;;4.93;1.30;;;;;;;;;;5073798;28;20033;-86
2022/06/06 02:33:04;;;;;;;2.35;1.42;;;;;;;;;;5072477;28;20032;-85
2022/06/06 02:35:34;;;;;;;4.85;1.30;;;;;;;;;;5072284;28;20051;-86
2022/06/06 02:37:59;;;;;;;3.67;1.20;;;;;;;;;;5073899;28;20035;-85
2022/06/06 02:40:27;;;;;;;5.05;1.38;;;;;;;;;;5074045;28;20036;-85
2022/06/06 02:42:53;;;;;;;2.00;1.17;;;;;;;;;;5072148;28;20385;-85
2022/06/06 02:45:19;;;;;;;2.40;1.30;;;;;;;;;;5072036;28;20047;-86
2022/06/06 02:47:49;;;;;;;2.70;1.30;;;;;;;;;;5073571;28;20489;-85
2022/06/06 02:50:18;;;;;;;3.58;1.38;;;;;;;;;;5073507;28;20554;-85
2022/06/06 02:52:43;;;;;;;2.95;1.30;;;;;;;;;;5073638;28;20039;-85
2022/06/06 02:55:10;;;;;;;2.55;1.48;;;;;;;;;;5071508;28;20032;-86
2022/06/06 02:57:38;;;;;;;2.83;1.40;;;;;;;;;;5073554;28;20396;-84
2022/06/06 03:00:06;;;;;;;3.30;1.20;;;;;;;;;;5072367;28;20456;-85
2022/06/06 03:02:35;;;;;;;2.53;1.55;;;;;;;;;;5073481;28;20032;-85
2022/06/06 03:05:02;;;;;;;4.50;1.42;;;;;;;;;;5072935;28;20078;-85
2022/06/06 03:07:58;;;;;;;3.35;1.50;;;;;;;;;;5073241;28;20055;-86
2022/06/06 03:10:52;;;;;;;1.70;1.50;;;;;;;;;;5073318;28;20489;-85
2022/06/06 03:13:37;;;;;;;;;;;;;;;;;;5072952;28;20037;-87
2022/06/06 03:22:01;;;;;;;2.75;1.55;;;;;;;;;;5083719;28;20047;-85
2022/06/06 03:24:53;;;;;;;3.50;1.50;;;;;;;;;;5080909;28;20044;-85
2022/06/06 03:27:41;;;;;;;1.65;1.30;;;;;;;;;;5082801;28;20088;-86
2022/06/06 03:30:19;;;;;;;3.75;1.40;;;;;;;;;;5081774;28;20048;-86
2022/06/06 03:32:58;;;;;;;2.72;1.40;;;;;;;;;;5083491;28;20037;-86
2022/06/06 03:35:42;;;;;;;1.80;1.30;;;;;;;;;;5082661;28;20119;-86
2022/06/06 03:38:38;;;;;;;2.88;1.50;;;;;;;;;;5084351;28;20108;-86
2022/06/06 03:41:08;;;;;;;3.22;1.40;;;;;;;;;;5060764;28;20102;-85
2022/06/06 03:44:11;;;;;;;3.00;1.38;;;;;;;;;;5082704;28;20032;-87
2022/06/06 03:46:51;;;;;;;2.15;1.40;;;;;;;;;;5081876;28;20029;-85
2022/06/06 03:49:29;;;;;;;2.75;1.40;;;;;;;;;;5083216;28;20036;-86
2022/06/06 03:52:04;;;;;;;3.67;1.25;;;;;;;;;;5082176;28;20043;-87
2022/06/06 03:54:57;;;;;;;2.00;1.10;;;;;;;;;;5082275;28;20052;-86
2022/06/06 03:57:25;;;;;;;1.60;1.20;;;;;;;;;;5081200;28;20037;-85
2022/06/06 04:00:00;;;;;;;3.95;1.30;;;;;;;;;;5077077;28;20035;-85
2022/06/06 04:02:31;;;;;;;4.85;1.30;;;;;;;;;;5077479;28;20103;-86
2022/06/06 04:05:02;;;;;;;1.48;1.17;;;;;;;;;;5071567;28;20055;-85
2022/06/06 04:07:28;;;;;;;1.63;1.13;;;;;;;;;;5072784;28;20033;-85
2022/06/06 04:09:54;;;;;;;2.17;1.30;;;;;;;;;;5072958;28;20374;-85
2022/06/06 04:12:22;;;;;;;4.15;1.48;;;;;;;;;;5076970;28;20077;-85
2022/06/06 04:14:59;;;;;;;3.85;1.30;;;;;;;;;;5076366;28;20028;-85
2022/06/06 04:17:33;;;;;;;2.17;1.23;;;;;;;;;;5076678;28;20047;-85
2022/06/06 04:20:19;;;;;;;2.60;1.30;;;;;;;;;;5075986;28;20077;-85
2022/06/06 04:23:00;;;;;;;2.05;1.30;;;;;;;;;;5076631;28;20525;-85
2022/06/06 04:25:40;;;;;;;1.90;1.38;;;;;;;;;;5074856;28;20036;-85
2022/06/06 04:28:10;;;;;;;2.88;1.58;;;;;;;;;;5076472;28;20077;-85
2022/06/06 04:30:57;;;;;;;1.73;1.30;;;;;;;;;;5076403;28;20036;-85
2022/06/06 04:33:40;;;;;;;2.25;1.40;;;;;;;;;;5076631;28;20040;-84
2022/06/06 04:36:24;;;;;;;;;;;;;;;;;;5076294;28;20037;-85
2022/06/06 04:39:00;;;;;;;2.47;1.30;;;;;;;;;;5076480;28;19919;-85
2022/06/06 04:41:41;;;;;;;5.35;1.52;;;;;;;;;;5075701;28;20040;-86
2022/06/06 04:44:09;;;;;;;3.35;1.55;;;;;;;;;;5075644;28;20037;-85
2022/06/06 04:47:02;;;;;;;3.08;1.55;;;;;;;;;;5076350;28;20408;-85
2022/06/06 04:49:29;;;;;;;3.90;1.35;;;;;;;;;;5074675;28;20541;-85
2022/06/06 04:51:58;;;;;;;2.85;1.52;;;;;;;;;;5076502;28;20032;-85
2022/06/06 04:54:29;;;;;;;3.33;1.42;;;;;;;;;;5075719;28;20028;-85
2022/06/06 04:56:55;;;;;;;3.28;1.40;;;;;;;;;;5076031;28;20508;-85
2022/06/06 04:59:23;;;;;;;2.50;1.52;;;;;;;;;;5074954;28;20435;-85
2022/06/06 05:01:48;;;;;;;2.03;1.20;;;;;;;;;;5075037;28;20511;-85
2022/06/06 05:04:14;;;;;;;3.67;1.40;;;;;;;;;;5075278;28;20044;-85
2022/06/06 05:06:58;;;;;;;4.25;1.70;;;;;;;;;;5076034;28;20037;-85
2022/06/06 05:09:48;;;;;;;2.88;1.40;;;;;;;;;;5075269;28;20571;-85
2022/06/06 05:12:51;;;;;;;3.65;1.45;;;;;;;;;;5075812;28;20032;-85
2022/06/06 05:15:19;;;;;;;2.38;1.45;;;;;;;;;;5073914;28;20476;-84
2022/06/06 05:17:51;;;;;;;4.53;1.27;;;;;;;;;;5075627;28;20032;-86
2022/06/06 05:20:31;;;;;;;2.72;1.27;;;;;;;;;;5075014;28;20127;-85
2022/06/06 05:23:26;;;;;;;3.53;1.20;;;;;;;;;;5074445;28;20041;-86
2022/06/06 05:25:54;;;;;;;2.25;1.30;;;;;;;;;;5075331;28;20166;-85
2022/06/06 05:28:52;;;;;;;3.35;1.30;;;;;;;;;;5075565;28;20177;-85
2022/06/06 05:31:20;;;;;;;2.25;1.25;;;;;;;;;;5074209;28;20044;-85
2022/06/06 05:33:58;;;;;;;2.78;1.30;;;;;;;;;;5075736;28;20382;-85
2022/06/06 05:36:59;;;;;;;2.75;1.15;;;;;;;;;;5074648;28;20631;-85
2022/06/06 05:39:47;;;;;;;2.22;1.20;;;;;;;;;;5075790;28;20115;-85
2022/06/06 05:42:38;;;;;;;5.38;1.20;;;;;;;;;;5075820;28;20036;-84
2022/06/06 05:45:29;;;;;;;2.53;1.38;;;;;;;;;;5073681;28;20040;-86
2022/06/06 05:48:06;;;;;;;2.90;1.27;;;;;;;;;;5074340;28;20029;-87
2022/06/06 05:50:55;;;;;;;1.50;1.10;;;;;;;;;;5078580;28;20083;-85
2022/06/06 05:53:50;;;;;;;1.30;1.20;;;;;;;;;;5077467;28;20059;-86
2022/06/06 05:56:24;;;;;;;2.42;1.10;;;;;;;;;;5079352;28;20421;-87
2022/06/06 05:59:06;;;;;;;2.38;1.27;;;;;;;;;;5091229;28;20025;-85
2022/06/06 06:01:56;;;;;;;1.30;1.00;;;;;;;;;;5063536;28;20066;-86
2022/06/06 06:04:44;;;;;;;1.73;1.10;;;;;;;;;;5061298;28;20481;-86
2022/06/06 06:07:31;;;;;;;5.15;1.30;;;;;;;;;;5052730;28;20405;-87
2022/06/06 06:10:14;;;;;;;1.15;1.00;;;;;;;;;;5063440;28;20037;-86
2022/06/06 06:13:02;;;;;;;1.80;1.17;;;;;;;;;;5054368;28;20477;-86
2022/06/06 06:15:38;;;;;;;2.67;1.30;;;;;;;;;;5053721;28;20440;-86
2022/06/06 06:18:10;;;;;;;1.90;1.30;;;;;;;;;;5055010;28;20079;-85
2022/06/06 06:20:45;;;;;;;1.10;1.00;;;;;;;;;;5055525;28;20462;-85
2022/06/06 06:23:18;;;;;;;1.85;1.20;;;;;;;;;;5056132;28;20040;-85
2022/06/06 06:25:46;;;;;;;1.35;1.00;;;;;;;;;;5055299;28;20190;-86
2022/06/06 06:28:12;;;;;;;3.35;1.20;;;;;;;;;;5054267;28;20043;-86
2022/06/06 06:30:58;;;;;;;1.70;1.10;;;;;;;;;;5054270;28;20037;-87
2022/06/06 06:33:36;;;;;;;2.63;1.20;;;;;;;;;;5054002;28;20036;-86
2022/06/06 06:36:26;;;;;;;3.08;1.10;;;;;;;;;;5054425;28;20037;-86
2022/06/06 06:39:16;;;;;;;3.55;1.38;;;;;;;;;;5054606;28;20501;-87
2022/06/06 06:41:52;;;;;;;1.33;1.08;;;;;;;;;;5053463;28;20041;-86
2022/06/06 06:44:30;;;;;;;2.92;1.27;;;;;;;;;;5053196;28;20041;-87
2022/06/06 06:46:57;;;;;;;1.92;1.25;;;;;;;;;;5054006;28;20045;-88
2022/06/06 06:49:43;;;;;;;3.20;1.05;;;;;;;;;;5053956;28;20096;-87
2022/06/06 06:52:30;;;;;;;2.05;1.20;;;;;;;;;;5054786;28;20052;-87
2022/06/06 06:55:08;;;;;;;2.17;1.30;;;;;;;;;;5054815;28;20037;-87
2022/06/06 06:57:49;;;;;;;2.17;1.10;;;;;;;;;;5054078;28;20116;-86
2022/06/06 07:00:18;;;;;;;2.28;1.10;;;;;;;;;;5054421;28;20036;-87
2022/06/06 07:09:12;;;;;;;3.17;1.20;;;;;;;;;;5053007;28;20102;-89
2022/06/06 07:11:46;;;;;;;6.32;1.23;;;;;;;;;;5054182;28;20037;-84
2022/06/06 07:14:31;;;;;;;2.38;1.20;;;;;;;;;;5035768;28;20037;-85
2022/06/06 07:16:58;;;;;;;1.55;1.20;;;;;;;;;;5036479;28;20059;-84
2022/06/06 07:19:45;;;;;;;2.25;1.10;;;;;;;;;;5052439;28;20136;-85
2022/06/06 07:22:13;;;;;;;4.10;1.30;;;;;;;;;;5053047;28;20041;-86
2022/06/06 07:24:41;;;;;;;2.63;1.10;;;;;;;;;;5054174;28;20033;-88
2022/06/06 07:27:10;;;;;;;3.08;1.25;;;;;;;;;;5053650;28;20020;-85
2022/06/06 07:29:36;;;;;;;3.28;1.40;;;;;;;;;;5052798;28;20044;-84
2022/06/06 07:32:49;;;;;;;2.95;1.20;;;;;;;;;;5053318;28;20033;-84
2022/06/06 07:35:24;;;;;;;2.08;1.42;;;;;;;;;;5050905;28;20045;-87
2022/06/06 07:37:53;;;;;;;3.30;1.10;;;;;;;;;;5056601;28;20040;-83
2022/06/06 07:40:46;;;;;;;2.45;1.40;;;;;;;;;;5052860;28;20112;-84
2022/06/06 07:43:20;;;;;;;2.47;1.15;;;;;;;;;;5054404;28;20112;-83
2022/06/06 07:45:48;;;;;;;3.45;1.35;;;;;;;;;;5035817;28;20132;-85
2022/06/06 07:49:01;;;;;;;2.10;1.30;;;;;;;;;;5052781;28;20040;-85
2022/06/06 07:51:29;;;;;;;2.63;1.30;;;;;;;;;;5053130;28;20037;-84
2022/06/06 07:54:10;;;;;;;2.67;1.40;;;;;;;;;;5053569;28;20033;-89
2022/06/06 07:56:41;;;;;;;2.65;1.40;;;;;;;;;;5053457;28;20071;-84
2022/06/06 07:59:19;;;;;;;5.13;1.35;;;;;;;;;;5054499;28;20037;-81
2022/06/06 08:01:48;;;;;;;3.72;1.30;;;;;;;;;;5053498;28;20041;-83
2022/06/06 08:04:32;;;;;;;1.88;1.20;;;;;;;;;;5051888;28;20061;-84
2022/06/06 08:07:14;;;;;;;1.35;1.20;;;;;;;;;;5035283;28;20040;-84
2022/06/06 08:09:39;;;;;;;1.75;1.30;;;;;;;;;;5052935;28;20058;-82
2022/06/06 08:12:17;;;;;;;2.05;1.25;;;;;;;;;;5051131;28;20037;-84
2022/06/06 08:15:21;;;;;;;2.90;1.38;;;;;;;;;;5051243;28;20036;-83
2022/06/06 08:18:27;;;;;;;2.45;1.30;;;;;;;;;;4994274;28;20034;-85
2022/06/06 08:21:21;;;;;;;3.05;1.40;;;;;;;;;;5036332;28;20041;-85
2022/06/06 08:23:49;;;;;;;3.13;1.40;;;;;;;;;;5054423;28;20106;-85
2022/06/06 08:26:16;;;;;;;3.47;1.30;;;;;;;;;;5051249;28;20036;-81
2022/06/06 08:28:44;;;;;;;3.00;1.50;;;;;;;;;;5052821;28;20037;-87
2022/06/06 08:31:10;;;;;;;1.45;1.30;;;;;;;;;;5053454;28;20036;-87
2022/06/06 08:33:35;;;;;;;3.83;1.50;;;;;;;;;;5053803;28;20028;-83
2022/06/06 08:36:21;;;;;;;2.47;1.45;;;;;;;;;;5050606;28;20098;-83
2022/06/06 08:39:27;;;;;;;4.13;1.60;;;;;;;;;;5051531;28;20033;-83
2022/06/06 08:42:07;;;;;;;4.32;1.60;;;;;;;;;;5047464;28;20668;-87
2022/06/06 08:44:51;;;;;;;3.25;1.60;;;;;;;;;;5036233;28;20117;-87
2022/06/06 08:47:59;;;;;;;3.13;1.30;;;;;;;;;;5052629;28;20041;-88
2022/06/06 08:51:04;;;;;;;2.95;1.60;;;;;;;;;;5010921;28;20046;-84
2022/06/06 08:53:50;;;;;;;2.95;1.55;;;;;;;;;;5034478;28;20130;-83
2022/06/06 08:56:28;;;;;;;3.15;1.52;;;;;;;;;;5051646;28;20025;-83
2022/06/06 08:59:13;;;;;;;2.38;1.50;;;;;;;;;;5055422;28;20032;-82
2022/06/06 09:01:56;;;;;;;4.75;1.55;;;;;;;;;;5069761;28;20066;-83
2022/06/06 09:04:47;;;;;;;2.28;1.40;;;;;;;;;;5073824;28;20537;-84
2022/06/06 09:07:34;;;;;;;3.63;1.40;;;;;;;;;;5074705;28;20032;-83
2022/06/06 09:10:38;;;;;;;2.40;1.40;;;;;;;;;;5074716;28;20036;-84
2022/06/06 09:13:06;;;;;;;2.05;1.50;;;;;;;;;;5076331;28;20105;-84
2022/06/06 09:16:00;;;;;;;3.05;1.40;;;;;;;;;;5075493;28;20067;-84
2022/06/06 09:18:47;;;;;;;2.55;1.60;;;;;;;;;;5074778;28;20040;-84
2022/06/06 09:21:19;;;;;;;2.60;1.40;;;;;;;;;;5075784;28;20499;-83
2022/06/06 09:23:53;;;;;;;4.75;1.75;;;;;;;;;;5075798;28;20458;-84
2022/06/06 09:26:23;;;;;;;4.28;1.50;;;;;;;;;;5075658;28;20040;-84
2022/06/06 09:29:34;;;;;;;2.70;1.40;;;;;;;;;;5075907;28;20091;-85
2022/06/06 09:32:35;;;;;;;1.95;1.60;;;;;;;;;;5075785;28;20039;-87
2022/06/06 09:35:23;;;;;;;4.65;2.30;;;;;;;;;;5032126;28;20040;-85
2022/06/06 09:38:10;;;;;;;3.50;2.30;;;;;;;;;;5076128;28;20499;-85
2022/06/06 09:40:55;;;;;;;2.63;1.30;;;;;;;;;;5083346;28;20120;-85
2022/06/06 09:43:55;;;;;;;2.63;1.67;;;;;;;;;;5079915;28;20452;-87
2022/06/06 09:46:27;;;;;;;2.55;1.30;;;;;;;;;;5072200;28;20072;-86
2022/06/06 09:49:17;;;;;;;4.53;1.45;;;;;;;;;;5081064;28;20032;-86
2022/06/06 09:52:02;;;;;;;1.77;1.30;;;;;;;;;;5080219;28;20443;-84
2022/06/06 10:00:22;;;;;;;2.90;1.40;;;;;;;;;;5078865;28;20028;-87
2022/06/06 10:03:24;;;;;;;3.75;1.80;;;;;;;;;;5082062;28;20275;-89
2022/06/06 10:06:08;;;;;;;3.17;1.40;;;;;;;;;;5078687;28;20060;-86
2022/06/06 10:08:52;;;;;;;3.15;1.70;;;;;;;;;;5079090;28;20056;-87
2022/06/06 10:11:33;;;;;;;;;;;;;;;;;;5079029;28;20546;-88
2022/06/06 10:14:05;;;;;;;4.00;1.55;;;;;;;;;;5058672;28;19912;-87
2022/06/06 10:16:33;;;;;;;2.25;1.60;;;;;;;;;;5071168;28;20036;-87
2022/06/06 10:19:20;;;;;;;2.10;1.50;;;;;;;;;;5078123;28;20032;-86
2022/06/06 10:21:55;;;;;;;2.35;1.55;;;;;;;;;;5079730;28;20139;-87
2022/06/06 10:24:35;;;;;;;4.45;1.60;;;;;;;;;;5077950;28;20033;-88
2022/06/06 10:27:28;;;;;;;2.45;1.50;;;;;;;;;;5078787;28;20040;-86
2022/06/06 10:30:11;;;;;;;2.92;1.70;;;;;;;;;;5078853;28;20024;-85
2022/06/06 10:32:51;;;;;;;2.85;1.80;;;;;;;;;;5077130;28;20060;-89
2022/06/06 10:35:36;;;;;;;3.28;1.70;;;;;;;;;;5077619;28;20042;-88
2022/06/06 10:38:32;;;;;;;2.70;1.70;;;;;;;;;;5076955;28;20421;-87
2022/06/06 10:41:28;;;;;;;3.25;1.70;;;;;;;;;;5079785;28;20033;-86
2022/06/06 10:44:26;;;;;;;5.00;1.80;;;;;;;;;;5079258;28;20052;-88
2022/06/06 10:47:24;;;;;;;2.17;1.52;;;;;;;;;;5062656;28;20174;-86
2022/06/06 10:50:14;;;;;;;12.50;6.30;;;;;;;;;;5079174;28;20066;-89
2022/06/06 10:52:52;;;;;;;4.22;1.77;;;;;;;;;;5081081;28;20040;-88
2022/06/06 10:55:36;;;;;;;3.08;1.55;;;;;;;;;;5080010;28;20040;-90
2022/06/06 10:58:17;;;;;;;3.55;1.67;;;;;;;;;;5078668;28;20036;-86
2022/06/06 11:00:48;;;;;;;3.15;1.60;;;;;;;;;;5079033;28;20040;-87
2022/06/06 11:03:51;;;;;;;3.25;1.65;;;;;;;;;;5077685;28;20051;-88
2022/06/06 11:07:11;;;;;;;2.97;1.70;;;;;;;;;;5078602;28;20040;-88
2022/06/06 11:09:51;;;;;;;5.07;1.52;;;;;;;;;;4981564;28;20038;-90
2022/06/06 11:12:29;;;;;;;3.70;1.58;;;;;;;;;;5070291;28;20094;-88
2022/06/06 11:14:59;;;;;;;5.03;1.60;;;;;;;;;;5078231;28;20032;-89
2022/06/06 11:17:42;;;;;;;2.63;1.60;;;;;;;;;;5078038;28;20029;-87
2022/06/06 11:20:32;;;;;;;3.00;1.60;;;;;;;;;;5074287;28;20043;-86
2022/06/06 11:23:06;;;;;;;4.28;1.48;;;;;;;;;;5078029;28;20529;-88
2022/06/06 11:26:10;;;;;;;2.58;1.70;;;;;;;;;;5077986;28;20028;-86
2022/06/06 11:28:42;;;;;;;3.22;1.50;;;;;;;;;;5079921;28;20362;-86
2022/06/06 11:31:16;;;;;;;2.53;1.50;;;;;;;;;;5079850;28;20028;-88
2022/06/06 11:34:13;;;;;;;2.58;1.50;;;;;;;;;;5078745;28;20062;-86
2022/06/06 11:36:42;;;;;;;3.53;1.67;;;;;;;;;;5079688;28;20032;-86
2022/06/06 11:39:35;;;;;;;2.65;1.67;;;;;;;;;;5079537;28;20036;-86
2022/06/06 11:42:04;;;;;;;4.60;1.77;;;;;;;;;;5079890;28;20036;-86
2022/06/06 11:45:00;;;;;;;3.75;1.90;;;;;;;;;;5079214;28;20123;-85
2022/06/06 11:47:29;;;;;;;1.90;1.50;;;;;;;;;;5079542;28;20032;-86
2022/06/06 11:50:03;;;;;;;6.47;1.63;;;;;;;;;;5077917;28;20032;-87
2022/06/06 11:52:32;;;;;;;2.97;1.60;;;;;;;;;;5079864;28;20033;-87
2022/06/06 11:55:00;;;;;;;1.63;1.38;;;;;;;;;;5077845;28;20056;-87
2022/06/06 11:57:53;;;;;;;4.03;1.70;;;;;;;;;;5076343;28;20021;-88
2022/06/06 12:00:21;;;;;;;3.78;1.80;;;;;;;;;;5083398;28;20028;-88
2022/06/06 12:03:09;;;;;;;2.03;1.52;;;;;;;;;;5081782;28;20049;-91
2022/06/06 12:06:00;;;;;;;3.50;1.50;;;;;;;;;;5082543;28;20127;-88
2022/06/06 12:08:38;;;;;;;4.68;1.60;;;;;;;;;;5078973;28;20071;-87
2022/06/06 12:11:31;;;;;;;2.53;1.45;;;;;;;;;;5088252;28;20096;-87
2022/06/06 12:13:59;;;;;;;3.80;1.40;;;;;;;;;;5079949;28;20409;-85
2022/06/06 12:16:31;;;;;;;2.90;1.55;;;;;;;;;;5079455;28;20032;-87
2022/06/06 12:19:17;;;;;;;2.53;1.60;;;;;;;;;;5080037;28;20035;-87
2022/06/06 12:21:48;;;;;;;4.28;1.65;;;;;;;;;;5078163;28;20111;-88
2022/06/06 12:24:48;;;;;;;3.67;1.60;;;;;;;;;;5076658;28;20109;-87
2022/06/06 12:27:42;;;;;;;2.65;1.52;;;;;;;;;;5077037;28;20560;-88
2022/06/06 12:30:38;;;;;;;2.78;1.63;;;;;;;;;;5070866;28;20485;-88
2022/06/06 12:33:14;;;;;;;2.47;1.60;;;;;;;;;;5076083;28;20028;-87
2022/06/06 12:35:50;;;;;;;2.53;1.60;;;;;;;;;;5075914;28;20097;-88
2022/06/06 12:38:24;;;;;;;2.90;1.58;;;;;;;;;;5075116;28;20028;-87
2022/06/06 12:40:58;;;;;;;3.22;1.77;;;;;;;;;;5074270;28;20068;-88
2022/06/06 12:43:26;;;;;;;2.03;1.40;;;;;;;;;;5073318;28;20036;-88
2022/06/06 12:46:04;;;;;;;1.88;1.48;;;;;;;;;;5075215;28;20032;-87
2022/06/06 12:49:09;;;;;;;3.45;1.50;;;;;;;;;;5072527;28;20028;-87
2022/06/06 12:51:44;;;;;;;3.00;1.60;;;;;;;;;;5060762;28;20048;-84
2022/06/06 12:57:46;;;;;;;4.90;1.60;;;;;;;;;;5072533;28;20035;-84
2022/06/06 13:00:14;;;;;;;2.42;1.48;;;;;;;;;;5073455;28;20029;-82
2022/06/06 13:03:05;;;;;;;2.65;1.40;;;;;;;;;;5074524;28;20044;-84
2022/06/06 13:05:37;;;;;;;2.35;1.30;;;;;;;;;;5067240;28;20511;-84
2022/06/06 13:08:06;;;;;;;4.60;1.60;;;;;;;;;;5074456;28;20035;-84
2022/06/06 13:11:16;;;;;;;1.73;1.40;;;;;;;;;;5074121;28;20029;-84
2022/06/06 13:13:58;;;;;;;1.75;1.40;;;;;;;;;;5055018;28;20039;-85
2022/06/06 13:16:58;;;;;;;3.30;1.58;;;;;;;;;;5072050;28;20036;-85
2022/06/06 13:19:42;;;;;;;2.08;1.50;;;;;;;;;;5071332;28;20094;-85
2022/06/06 13:22:26;;;;;;;2.53;1.45;;;;;;;;;;5073097;28;20123;-84
2022/06/06 13:25:07;;;;;;;2.65;1.40;;;;;;;;;;5074338;28;20060;-84
2022/06/06 13:27:51;;;;;;;2.35;1.45;;;;;;;;;;5074350;28;20032;-84
2022/06/06 13:30:17;;;;;;;2.78;1.50;;;;;;;;;;5074221;28;20033;-88
2022/06/06 13:33:03;;;;;;;3.80;1.63;;;;;;;;;;5074614;28;20145;-86
2022/06/06 13:35:38;;;;;;;2.35;1.35;;;;;;;;;;5074571;28;20052;-86
2022/06/06 13:38:26;;;;;;;2.47;1.38;;;;;;;;;;5075523;28;20115;-86
2022/06/06 13:41:24;;;;;;;2.83;1.50;;;;;;;;;;5075286;28;20047;-86
2022/06/06 13:44:02;;;;;;;3.67;1.40;;;;;;;;;;5075487;28;20048;-85
2022/06/06 13:46:38;;;;;;;2.00;1.30;;;;;;;;;;5076271;28;20107;-86
2022/06/06 13:49:31;;;;;;;3.28;1.50;;;;;;;;;;5076238;28;20511;-86
2022/06/06 13:52:16;;;;;;;3.78;1.40;;;;;;;;;;5076002;28;20052;-86
2022/06/06 13:54:41;;;;;;;;;;;;;;;;;;5076510;28;20043;-86
2022/06/06 13:57:19;;;;;;;1.70;1.27;;;;;;;;;;5076201;28;19912;-87
2022/06/06 13:59:59;;;;;;;2.72;1.50;;;;;;;;;;5074549;28;20055;-88
2022/06/06 14:02:46;;;;;;;2.53;1.30;;;;;;;;;;5073782;28;20032;-87
2022/06/06 14:05:35;;;;;;;3.70;1.27;;;;;;;;;;5072020;28;20102;-88
2022/06/06 14:08:07;;;;;;;2.58;1.40;;;;;;;;;;5073752;28;20174;-87
2022/06/06 14:10:43;;;;;;;1.70;1.30;;;;;;;;;;5073208;28;20029;-87
2022/06/06 14:13:34;;;;;;;3.35;1.60;;;;;;;;;;5073455;28;20033;-88
2022/06/06 14:16:01;;;;;;;2.55;1.30;;;;;;;;;;5072602;28;20036;-87
2022/06/06 14:18:34;;;;;;;3.13;1.50;;;;;;;;;;5073111;28;20033;-88
2022/06/06 14:21:03;;;;;;;3.75;1.30;;;;;;;;;;5071899;28;20044;-88
2022/06/06 14:23:30;;;;;;;2.05;1.20;;;;;;;;;;5071756;28;20119;-88
2022/06/06 14:26:00;;;;;;;2.22;1.30;;;;;;;;;;5071191;28;20123;-87
2022/06/06 14:28:35;;;;;;;2.20;1.40;;;;;;;;;;5072914;28;20036;-88
2022/06/06 14:31:23;;;;;;;5.90;1.65;;;;;;;;;;5073179;28;20040;-88
2022/06/06 14:33:57;;;;;;;5.25;1.73;;;;;;;;;;5072816;28;20033;-88
2022/06/06 14:36:28;;;;;;;2.25;1.60;;;;;;;;;;5072826;28;20070;-88
2022/06/06 14:39:03;;;;;;;2.28;1.50;;;;;;;;;;5072496;28;20032;-87
2022/06/06 14:41:34;;;;;;;2.00;1.50;;;;;;;;;;5072879;28;20040;-88
2022/06/06 14:44:03;;;;;;;2.85;1.60;;;;;;;;;;5070881;28;20036;-88
2022/06/06 14:46:44;;;;;;;2.88;1.38;;;;;;;;;;5072379;28;20035;-88
2022/06/06 14:49:11;;;;;;;2.85;1.20;;;;;;;;;;5072242;28;20047;-88
2022/06/06 14:51:43;;;;;;;3.10;1.58;;;;;;;;;;5072443;28;20032;-88
2022/06/06 14:54:12;;;;;;;3.40;1.40;;;;;;;;;;5071831;28;20044;-88
2022/06/06 14:56:48;;;;;;;3.28;1.50;;;;;;;;;;5071098;28;20503;-88
2022/06/06 14:59:17;;;;;;;2.63;1.40;;;;;;;;;;5072269;28;20488;-86
2022/06/06 15:01:47;;;;;;;3.40;1.50;;;;;;;;;;5072103;28;20040;-88
2022/06/06 15:04:28;;;;;;;2.92;1.48;;;;;;;;;;5075818;28;20094;-86
2022/06/06 15:06:57;;;;;;;3.00;1.50;;;;;;;;;;5075343;28;20526;-86
2022/06/06 15:09:29;;;;;;;1.95;1.40;;;;;;;;;;5074978;28;20020;-85
2022/06/06 15:11:55;;;;;;;2.85;1.40;;;;;;;;;;5075542;28;20063;-86
2022/06/06 15:14:27;;;;;;;3.80;1.50;;;;;;;;;;5056264;28;20628;-86
2022/06/06 15:16:55;;;;;;;2.25;1.40;;;;;;;;;;5073811;28;20048;-85
2022/06/06 15:19:39;;;;;;;4.13;1.30;;;;;;;;;;5075274;28;20449;-85
2022/06/06 15:22:06;;;;;;;2.63;1.40;;;;;;;;;;5075228;28;20066;-86
2022/06/06 15:24:43;;;;;;;2.53;1.50;;;;;;;;;;5073425;28;20036;-86
2022/06/06 15:27:28;;;;;;;2.35;1.30;;;;;;;;;;5074389;28;20040;-86
2022/06/06 15:30:14;;;;;;;2.35;1.30;;;;;;;;;;5073086;28;20044;-86
2022/06/06 15:32:59;;;;;;;6.22;1.50;;;;;;;;;;5074331;28;20062;-86
2022/06/06 15:35:43;;;;;;;4.40;1.60;;;;;;;;;;5074710;28;20108;-86
2022/06/06 15:38:08;;;;;;;;;;;;;;;;;;5073644;28;20091;-86
2022/06/06 15:41:01;;;;;;;2.53;1.50;;;;;;;;;;5073413;28;19924;-85
2022/06/06 15:43:52;;;;;;;5.95;1.55;;;;;;;;;;5051199;28;20057;-85
2022/06/06 15:46:44;;;;;;;3.80;1.58;;;;;;;;;;5058756;28;20068;-86
2022/06/06 15:49:28;;;;;;;1.95;1.60;;;;;;;;;;5074280;28;20037;-85
2022/06/06 15:52:04;;;;;;;4.30;1.58;;;;;;;;;;5074932;28;20493;-85
2022/06/06 15:54:41;;;;;;;2.65;1.50;;;;;;;;;;5074433;28;20435;-86
2022/06/06 15:57:44;;;;;;;3.92;1.70;;;;;;;;;;5057750;28;20413;-86
2022/06/06 16:00:26;;;;;;;2.47;1.58;;;;;;;;;;5075231;28;20184;-85
2022/06/06 16:03:03;;;;;;;2.88;1.70;;;;;;;;;;5075808;28;20111;-86
2022/06/06 16:05:38;;;;;;;2.60;1.55;;;;;;;;;;5075150;28;20032;-86
2022/06/06 16:08:24;;;;;;;2.50;1.40;;;;;;;;;;5080570;28;20036;-86
2022/06/06 16:11:08;;;;;;;2.95;1.70;;;;;;;;;;5078263;28;20060;-89
2022/06/06 16:13:55;;;;;;;4.68;1.83;;;;;;;;;;5057697;28;20040;-87
2022/06/06 16:16:23;;;;;;;2.83;1.67;;;;;;;;;;5075815;28;20048;-88